• Join FlightAware (Why Join?)
  • Login
  • US Flag 
01:33PM EDT


 

Airport Tracker/Info


-or-


 

Live Flight TrackerFlight Track Log ✈ AWE1454 ✈ 17-May-2013 ✈ KIAH - KCLT

Flight Track Log - Related Links

Times and Time Zones

All times are in EDT time to prevent confusion due to time zone crossing. See the AWE1454 flight status page for this flight to view local times or setup timezone preferences in your user account.

Time Position Orientation Groundspeed Altitude Reporting Facility
EDT Latitude Longitude Course Direction KTS MPH feet Rate Location/Type
04:38PM 29.9639 -95.3433 90° East 187 215 700  Level Houston Center
04:40PM 29.9544 -95.2647 98° East 243 280 3,300 1,980 Climbing Houston Center
04:41PM 29.9834 -94.9351 90° East  Level FlightAware Approximate
04:41PM 29.9697 -95.1786 78° East 300 345 5,200  Level Houston Center
04:42PM 29.9834 -94.8024 90° East  Level FlightAware Approximate
04:42PM 29.9847 -95.0922 79° East 271 312 8,500  Level Houston Center
04:43PM 29.9833 -94.6697 90° East  Level FlightAware Approximate
04:43PM 29.9842 -94.9983 90° East 303 349 10,500  Level Houston Center
04:44PM 29.9833 -94.5369 90° East  Level FlightAware Approximate
04:44PM 29.9875 -94.8686 88° East 334 384 12,700  Level Houston Center
04:45PM 29.9883 -94.7539 89° East 353 406 15,200 2,220 Climbing Houston Center
04:46PM 29.9908 -94.6386 89° East 359 413 17,400 1,740 Climbing Houston Center
04:47PM 29.9925 -94.5133 89° East 386 444 18,900 1,680 Climbing Houston Center
04:48PM 29.9942 -94.3628 89° East 406 467 20,900 1,740 Climbing Houston Center
04:49PM 30.0042 -94.2283 85° East 423 487 22,600 1,140 Climbing Houston Center
04:50PM 30.0208 -94.0925 82° East 429 494 23,300 1,020 Climbing Houston Center
04:51PM 30.0350 -93.9539 83° East 436 502 24,800 1,500 Climbing Houston Center
04:52PM 30.0575 -93.7836 81° East 451 519 26,500 1,440 Climbing Houston Center
04:53PM 30.0747 -93.6408 82° East 455 524 27,800 960 Climbing Houston Center
04:54PM 30.0914 -93.4928 83° East 471 542 28,600 840 Climbing Houston Center
04:55PM 30.1108 -93.3400 82° East 484 557 29,600 1,260 Climbing Houston Center
04:56PM 30.1353 -93.1547 81° East 491 565 31,300 1,500 Climbing Houston Center
04:57PM 30.1592 -93.0064 79° East 479 551 32,700 780 Climbing Houston Center
04:58PM 30.1886 -92.8614 77° East 470 541 33,000 120 Climbing Houston Center
04:59PM 30.2181 -92.7125 77° East 476 548 33,000  Level Houston Center
05:00PM 30.2475 -92.5642 77° East 477 549 33,000  Level Houston Center
05:01PM 30.2833 -92.3847 77° East 479 551 33,000  Level Houston Center
05:02PM 30.3086 -92.2353 79° East 474 545 33,000  Level Houston Center
05:03PM 30.3369 -92.0881 77° East 473 544 33,000  Level Houston Center
05:05PM 30.3647 -91.9406 78° East 472 543 33,000  Level Houston Center
05:06PM 30.3925 -91.7922 78° East 472 543 33,000  Level Houston Center
05:07PM 30.4217 -91.6431 77° East 474 545 33,000  Level Houston Center
05:08PM 30.4586 -91.4633 77° East 477 549 33,000  Level Houston Center
05:09PM 30.4861 -91.3119 78° East 479 551 33,000  Level Houston Center
05:10PM 30.5158 -91.1628 77° East 478 550 33,000  Level Houston Center
05:11PM 30.5489 -91.0136 76° East 476 548 33,000  Level Houston Center
05:12PM 30.5850 -90.8622 74° East 485 558 33,000  Level Houston Center
05:13PM 30.6192 -90.7111 75° East 486 559 33,000  Level Houston Center
05:14PM 30.6583 -90.5314 76° East 480 552 33,000  Level Houston Center
05:15PM 30.6931 -90.3808 75° East 481 554 33,000  Level Houston Center
05:16PM 30.7267 -90.2297 75° East 480 552 33,000  Level Houston Center
05:17PM 30.7711 -90.0850 70° East 473 544 33,000  Level Houston Center
05:18PM 30.8408 -89.9544 58° Northeast 469 540 33,000  Level Houston Center
05:19PM 30.9106 -89.8275 57° Northeast 466 536 33,000  Level Houston Center
05:20PM 30.9789 -89.6981 58° Northeast 467 537 33,000  Level Houston Center
05:21PM 31.0614 -89.5450 58° Northeast 464 534 33,000  Level Houston Center
05:22PM 31.1294 -89.4194 58° Northeast 460 529 33,000  Level Houston Center
05:23PM 31.1969 -89.2917 58° Northeast 461 531 33,000  Level Houston Center
05:24PM 31.2633 -89.1639 59° Northeast 459 528 33,000  Level Houston Center
05:25PM 31.3294 -89.0403 58° Northeast 452 520 33,000  Level Houston Center
05:26PM 31.3978 -88.9131 58° Northeast 457 526 33,000  Level Houston Center
05:27PM 31.4792 -88.7594 58° Northeast 460 529 33,000  Level Houston Center
05:28PM 31.5456 -88.6336 58° Northeast 454 522 33,000  Level Houston Center
05:29PM 31.6108 -88.5078 59° Northeast 448 516 33,000  Level Houston Center
05:30PM 31.6756 -88.3831 59° Northeast 448 516 33,000  Level Houston Center
05:31PM 31.7167 -88.3111 56° Northeast 454 522 33,000  Level Atlanta Center
05:32PM 31.7836 -88.1847 58° Northeast 449 517 33,000  Level Atlanta Center
05:33PM 31.8483 -88.0581 59° Northeast 449 517 33,000  Level Atlanta Center
05:34PM 31.9125 -87.9361 58° Northeast 443 510 33,000  Level Atlanta Center
05:35PM 31.9792 -87.8094 58° Northeast 443 510 33,000  Level Atlanta Center
05:36PM 32.0436 -87.6822 59° Northeast 443 510 33,000  Level Atlanta Center
05:37PM 32.1036 -87.5547 61° Northeast 438 504 33,000  Level Atlanta Center
05:38PM 32.1697 -87.4272 58° Northeast 438 504 33,000  Level Atlanta Center
05:39PM 32.2314 -87.3044 59° Northeast 438 504 33,000  Level Atlanta Center
05:40PM 32.2953 -87.1767 59° Northeast 443 510 33,000  Level Atlanta Center
05:41PM 32.3567 -87.0558 59° Northeast 437 503 33,000  Level Atlanta Center
05:42PM 32.4181 -86.9325 59° Northeast 437 503 33,000  Level Atlanta Center
05:43PM 32.4794 -86.8064 60° Northeast 437 503 33,000  Level Atlanta Center
05:44PM 32.5428 -86.6828 59° Northeast 437 503 33,000  Level Atlanta Center
05:45PM 32.6017 -86.5611 60° Northeast 437 503 33,000  Level Atlanta Center
05:46PM 32.6669 -86.4347 58° Northeast 437 503 33,000  Level Atlanta Center
05:47PM 32.7278 -86.3081 60° Northeast 437 503 33,000  Level Atlanta Center
05:48PM 32.7903 -86.1861 59° Northeast 437 503 33,000  Level Atlanta Center
05:49PM 32.8508 -86.0589 60° Northeast 437 503 33,000  Level Atlanta Center
05:50PM 32.9136 -85.9317 60° Northeast 437 503 33,000  Level Atlanta Center
05:51PM 32.9739 -85.8067 60° Northeast 437 503 33,000  Level Atlanta Center
05:52PM 33.0339 -85.6792 61° Northeast 437 503 33,000  Level Atlanta Center
05:53PM 33.0983 -85.5489 59° Northeast 443 510 33,000  Level Atlanta Center
05:54PM 33.1644 -85.4136 60° Northeast 435 501 33,000  Level Atlanta Center
05:55PM 33.2200 -85.3003 60° Northeast 435 501 33,000  Level Atlanta Center
05:56PM 33.2797 -85.1744 60° Northeast 440 506 33,000  Level Atlanta Center
05:57PM 33.3414 -85.0458 60° Northeast 440 506 33,000  Level Atlanta Center
05:58PM 33.4008 -84.9172 61° Northeast 440 506 33,000  Level Atlanta Center
05:59PM 33.4456 -84.7758 69° East 440 506 33,000  Level Atlanta Center
06:00PM 33.4881 -84.6417 69° East 435 501 33,000  Level Atlanta Center
06:01PM 33.5325 -84.4997 69° East 435 501 33,000  Level Atlanta Center
06:02PM 33.5747 -84.3606 70° East 435 501 33,000  Level Atlanta Center
06:03PM 33.6231 -84.2133 68° East 435 501 33,000  Level Atlanta Center
06:04PM 33.6628 -84.0836 70° East 445 512 33,000  Level Atlanta Center
06:05PM 33.7067 -83.9464 69° East 450 518 33,000  Level Atlanta Center
06:06PM 33.7503 -83.8114 69° East 443 510 33,000  Level Atlanta Center
06:07PM 33.7936 -83.6714 70° East 443 510 33,000  Level Atlanta Center
06:08PM 33.8392 -83.5236 70° East 432 497 33,000  Level Atlanta Center
06:09PM 33.8822 -83.3858 69° East 432 497 33,000  Level Atlanta Center
06:10PM 33.9253 -83.2503 69° East 432 497 33,000  Level Atlanta Center
06:11PM 33.9661 -83.1119 70° East 432 497 33,000  Level Atlanta Center
06:12PM 34.0067 -82.9739 70° East 432 497 33,000  Level Atlanta Center
06:13PM 34.0472 -82.8378 70° East 432 497 33,000 -540 Level Atlanta Center
06:14PM 34.0894 -82.6969 70° East 432 497 32,000 -960 Descending Atlanta Center
06:15PM 34.1319 -82.5606 69° East 432 497 31,100 -1,320 Descending Atlanta Center
06:16PM 34.1739 -82.4192 70° East 432 497 29,400 -2,460 Descending Atlanta Center
06:17PM 34.2158 -82.2753 71° East 437 503 26,200 -2,940 Descending Atlanta Center
06:18PM 34.2639 -82.1411 67° East 437 503 23,600 -2,400 Descending Atlanta Center
06:19PM 34.3414 -82.0361 48° Northeast 421 484 21,500 -2,280 Descending Atlanta Center
06:20PM 34.4211 -81.9361 46° Northeast 415 478 19,100 -2,220 Descending Atlanta Center
06:21PM 34.4947 -81.8436 46° Northeast 396 456 17,100 -2,280 Descending Atlanta Center
06:22PM 34.5681 -81.7533 45° Northeast 382 440 14,600 -2,400 Descending Atlanta Center
06:23PM 34.6417 -81.6631 45° Northeast 375 432 12,300 -2,100 Descending Atlanta Center
06:23PM 34.6597 -81.6372 50° Northeast 371 427 12,000 -300 Descending Atlanta Center
06:24PM 34.7067 -81.5828 44° Northeast 358 412 12,000  Level Atlanta Center
06:24PM 34.7231 -81.5569 52° Northeast 319 367 12,000  Level Atlanta Center
06:25PM 34.7678 -81.5025 45° Northeast 327 376 12,000  Level Atlanta Center
06:25PM 34.7819 -81.4794 53° Northeast 313 360 12,000  Level Atlanta Center
06:26PM 34.8286 -81.4250 44° Northeast 317 365 12,000 -240 Level Atlanta Center
06:26PM 34.8489 -81.3964 49° Northeast 317 365 11,800 -1,440 Descending Atlanta Center
06:27PM 34.8897 -81.3469 45° Northeast 312 359 10,600 -1,620 Descending Atlanta Center
06:27PM 34.9078 -81.3186 52° Northeast 318 366 10,200 -1,440 Descending Atlanta Center
06:28PM 34.9483 -81.2717 43° Northeast 306 352 9,200 -1,200 Descending Atlanta Center
06:28PM 34.9686 -81.2456 47° Northeast 304 350 9,000 -240 Descending Atlanta Center
06:29PM 35.0053 -81.1961 48° Northeast 301 346 9,000  Level Atlanta Center
06:29PM 35.0256 -81.1728 43° Northeast 299 344 9,000  Level Atlanta Center
06:30PM 35.0619 -81.1206 50° Northeast 301 346 9,000  Level Atlanta Center
06:30PM 35.0781 -81.1022 43° Northeast 300 345 9,000  Level Atlanta Center
06:31PM 35.1272 -81.0625 33° Northeast 301 346 9,000  Level Atlanta Center
06:31PM 35.1522 -81.0667 352° North 277 319 9,000 -420 Level Atlanta Center
06:32PM 35.1983 -81.0728 354° North 260 299 8,600 -1,140 Descending Atlanta Center
06:32PM 35.2233 -81.0717 North 242 278 7,900 -1,680 Descending Atlanta Center
06:33PM 35.2883 -81.0797 354° North 238 274 6,400 -1,500 Descending Atlanta Center
06:34PM 35.3553 -81.0847 357° North 236 272 4,900 -1,500 Descending Atlanta Center
06:35PM 35.3914 -81.0250 53° Northeast 240 276 3,400 -960 Descending Atlanta Center
06:36PM 35.3589 -80.9828 133° Southeast 179 206 3,000 -420 Descending Atlanta Center